createdAt,value
2018-08-20T00:00:59.296Z,20.29
2018-08-20T00:03:27.625Z,20.24
2018-08-20T00:05:55.949Z,20.18
2018-08-20T00:08:24.859Z,20.18
2018-08-20T00:10:53.182Z,20.19
2018-08-20T00:13:21.510Z,20.19
2018-08-20T00:15:49.248Z,20.19
2018-08-20T00:18:18.147Z,20.15
2018-08-20T00:20:46.474Z,20.08
2018-08-20T00:23:14.213Z,20.04
2018-08-20T00:25:42.537Z,20.05
2018-08-20T00:28:11.439Z,20.05
2018-08-20T00:30:40.503Z,20.07
2018-08-20T00:33:08.082Z,20.08
2018-08-20T00:35:36.405Z,20.09
2018-08-20T00:38:04.143Z,20.12
2018-08-20T00:40:32.467Z,20.15
2018-08-20T00:43:00.804Z,20.17
2018-08-20T00:45:29.134Z,20.17
2018-08-20T00:47:57.463Z,20.15
2018-08-20T00:50:25.786Z,20.14
2018-08-20T00:52:54.699Z,20.15
2018-08-20T00:55:22.451Z,20.16
2018-08-20T00:57:51.364Z,20.16
2018-08-20T01:00:19.828Z,20.17
2018-08-20T01:02:48.148Z,20.19
2018-08-20T01:05:16.493Z,20.20
2018-08-20T01:07:44.221Z,20.19
2018-08-20T01:10:12.546Z,20.17
2018-08-20T01:12:40.867Z,20.16
2018-08-20T01:15:09.771Z,20.17
2018-08-20T01:17:38.103Z,20.17
2018-08-20T01:20:05.843Z,20.18
2018-08-20T01:22:34.749Z,20.16
2018-08-20T01:25:03.070Z,20.16
2018-08-20T01:27:30.813Z,20.12
2018-08-20T01:29:59.139Z,20.10
2018-08-20T01:32:27.461Z,20.07
2018-08-20T01:34:56.374Z,20.04
2018-08-20T01:37:24.694Z,20.01
2018-08-20T01:39:53.024Z,20.00
2018-08-20T01:42:21.344Z,19.99
2018-08-20T01:44:49.670Z,19.97
2018-08-20T01:47:17.419Z,19.95
2018-08-20T01:49:46.316Z,19.89
2018-08-20T01:52:14.639Z,19.86
2018-08-20T01:54:42.376Z,19.85
2018-08-20T01:57:10.705Z,19.84
2018-08-20T01:59:39.030Z,19.85
2018-08-20T02:02:07.985Z,19.85
2018-08-20T02:04:35.723Z,19.85
2018-08-20T02:07:04.048Z,19.85
2018-08-20T02:09:32.373Z,19.86
2018-08-20T02:12:00.697Z,19.88
2018-08-20T02:14:29.615Z,19.88
2018-08-20T02:16:57.923Z,19.87
2018-08-20T02:19:26.031Z,19.84
2018-08-20T02:21:54.346Z,19.83
2018-08-20T02:24:23.237Z,19.87
2018-08-20T02:26:51.544Z,19.90
2018-08-20T02:29:19.298Z,19.91
2018-08-20T02:31:48.182Z,19.94
2018-08-20T02:34:15.920Z,19.95
2018-08-20T02:36:44.816Z,19.95
2018-08-20T02:39:13.137Z,19.91
2018-08-20T02:41:41.450Z,19.87
2018-08-20T02:44:09.186Z,19.87
2018-08-20T02:46:37.501Z,19.85
2018-08-20T02:49:06.397Z,19.84
2018-08-20T02:51:34.129Z,19.80
2018-08-20T02:54:02.442Z,19.80
2018-08-20T02:56:31.328Z,19.81
2018-08-20T02:58:59.062Z,19.83
2018-08-20T03:01:27.388Z,19.85
2018-08-20T03:03:56.305Z,19.89
2018-08-20T03:06:24.042Z,19.92
2018-08-20T03:08:52.361Z,19.95
2018-08-20T03:11:20.676Z,19.98
2018-08-20T03:13:49.049Z,20.00
2018-08-20T03:16:17.485Z,20.04
2018-08-20T03:18:46.252Z,20.10
2018-08-20T03:21:13.977Z,20.14
2018-08-20T03:23:42.286Z,20.17
2018-08-20T03:26:10.621Z,20.22
2018-08-20T03:28:39.498Z,20.26
2018-08-20T03:31:07.229Z,20.30
2018-08-20T03:33:36.129Z,20.34
2018-08-20T03:36:04.435Z,20.36
2018-08-20T03:38:32.739Z,20.39
2018-08-20T03:41:01.062Z,20.44
2018-08-20T03:43:28.788Z,20.48
2018-08-20T03:45:57.105Z,20.52
2018-08-20T03:48:25.997Z,20.53
2018-08-20T03:50:53.736Z,20.58
2018-08-20T03:53:22.049Z,20.61
2018-08-20T03:55:50.426Z,20.65
2018-08-20T03:58:19.316Z,20.69
2018-08-20T04:00:47.645Z,20.73
2018-08-20T04:03:15.397Z,20.76
2018-08-20T04:08:12.077Z,20.80
2018-08-20T04:10:40.991Z,20.82
2018-08-20T04:13:09.330Z,20.83
2018-08-20T04:15:37.645Z,20.84
2018-08-20T04:18:05.391Z,20.86
2018-08-20T04:20:34.287Z,20.90
2018-08-20T04:23:02.073Z,20.91
2018-08-20T04:25:30.339Z,20.94
2018-08-20T04:27:58.649Z,20.98
2018-08-20T04:30:27.564Z,21.02
2018-08-20T04:32:55.864Z,21.06
2018-08-20T04:35:24.175Z,21.11
2018-08-20T04:37:52.484Z,21.18
2018-08-20T04:40:20.226Z,21.24
2018-08-20T04:42:49.123Z,21.29
2018-08-20T04:45:16.862Z,21.32
2018-08-20T04:47:46.384Z,21.35
2018-08-20T04:50:14.473Z,21.39
2018-08-20T04:52:43.274Z,21.49
2018-08-20T04:55:11.587Z,21.57
2018-08-20T04:57:39.610Z,21.65
2018-08-20T05:00:08.220Z,21.74
2018-08-20T05:02:36.137Z,21.82
2018-08-20T05:05:04.859Z,21.90
2018-08-20T05:07:32.628Z,21.94
2018-08-20T05:10:01.628Z,21.96
2018-08-20T05:12:29.854Z,22.01
2018-08-20T05:14:57.590Z,22.06
2018-08-20T05:17:26.482Z,22.11
2018-08-20T05:19:54.216Z,22.15
2018-08-20T05:22:23.111Z,22.17
2018-08-20T05:24:51.652Z,22.18
2018-08-20T05:27:19.170Z,22.21
2018-08-20T05:29:47.464Z,22.26
2018-08-20T05:32:15.787Z,22.35
2018-08-20T05:34:44.681Z,22.46
2018-08-20T05:37:12.427Z,22.54
2018-08-20T05:39:40.748Z,22.55
2018-08-20T05:42:09.645Z,22.60
2018-08-20T05:44:37.385Z,22.69
2018-08-20T05:47:05.689Z,22.78
2018-08-20T05:49:34.011Z,22.87
2018-08-20T05:52:02.339Z,22.94
2018-08-20T05:54:30.649Z,22.98
2018-08-20T05:56:58.962Z,22.96
2018-08-20T05:59:27.856Z,22.97
2018-08-20T06:01:56.179Z,23.03
2018-08-20T06:04:23.914Z,23.09
2018-08-20T06:06:52.229Z,23.13
2018-08-20T06:09:20.608Z,23.16
2018-08-20T06:11:48.931Z,23.22
2018-08-20T06:14:17.242Z,23.29
2018-08-20T06:16:46.132Z,23.43
2018-08-20T06:19:14.449Z,23.52
2018-08-20T06:21:42.203Z,23.53
2018-08-20T06:24:11.114Z,23.58
2018-08-20T06:26:38.845Z,23.63
2018-08-20T06:29:07.172Z,23.68
2018-08-20T06:31:36.064Z,23.68
2018-08-20T06:34:04.388Z,23.63
2018-08-20T06:36:33.497Z,23.60
2018-08-20T06:39:01.822Z,23.56
2018-08-20T06:41:30.177Z,23.54
2018-08-20T06:43:58.446Z,23.51
2018-08-20T06:46:26.760Z,23.48
2018-08-20T06:48:55.301Z,23.47
2018-08-20T06:51:23.387Z,23.47
2018-08-20T06:53:52.521Z,23.45
2018-08-20T06:56:20.842Z,23.45
2018-08-20T06:58:49.175Z,23.46
2018-08-20T07:01:16.931Z,23.46
2018-08-20T07:03:45.226Z,23.45
2018-08-20T07:06:13.576Z,23.47
2018-08-20T07:08:41.867Z,23.43
2018-08-20T07:11:10.820Z,23.37
2018-08-20T07:13:38.555Z,23.31
2018-08-20T07:16:07.458Z,23.26
2018-08-20T07:18:36.101Z,23.22
2018-08-20T07:21:03.854Z,23.19
2018-08-20T07:23:32.310Z,23.21
2018-08-20T07:26:00.487Z,23.24
2018-08-20T07:28:29.388Z,23.22
2018-08-20T07:30:57.126Z,23.27
2018-08-20T07:33:26.013Z,23.33
2018-08-20T07:35:54.325Z,23.36
2018-08-20T07:38:22.642Z,23.38
2018-08-20T07:40:50.950Z,23.39
2018-08-20T07:43:19.257Z,23.40
2018-08-20T07:45:47.005Z,23.37
2018-08-20T07:48:15.323Z,23.25
2018-08-20T07:50:44.222Z,23.26
2018-08-20T07:53:12.005Z,23.36
2018-08-20T07:55:40.869Z,23.48
2018-08-20T07:58:09.150Z,23.63
2018-08-20T08:00:38.049Z,23.66
2018-08-20T08:03:06.371Z,23.79
2018-08-20T08:05:34.101Z,23.89
2018-08-20T08:08:02.425Z,24.00
2018-08-20T08:10:30.741Z,24.04
2018-08-20T08:12:59.104Z,24.01
2018-08-20T08:15:27.413Z,23.99
2018-08-20T08:17:55.726Z,23.96
2018-08-20T08:20:24.380Z,23.90
2018-08-20T08:22:53.265Z,23.82
2018-08-20T08:25:21.580Z,23.75
2018-08-20T08:27:49.320Z,23.76
2018-08-20T08:30:18.217Z,23.83
2018-08-20T08:32:45.948Z,23.87
2018-08-20T08:35:14.902Z,23.99
2018-08-20T08:37:42.646Z,24.08
2018-08-20T08:40:11.537Z,24.16
2018-08-20T08:42:39.869Z,24.09
2018-08-20T08:45:07.605Z,24.14
2018-08-20T08:47:36.496Z,24.13
2018-08-20T08:50:04.240Z,24.09
2018-08-20T08:52:33.138Z,24.22
2018-08-20T08:55:01.461Z,24.31
2018-08-20T08:57:29.199Z,24.42
2018-08-20T08:59:58.363Z,24.47
2018-08-20T09:02:26.688Z,24.57
2018-08-20T09:04:54.412Z,24.71
2018-08-20T09:07:23.358Z,24.76
2018-08-20T09:09:51.093Z,24.76
2018-08-20T09:12:19.993Z,24.80
2018-08-20T09:14:47.799Z,24.85
2018-08-20T09:17:16.695Z,24.92
2018-08-20T09:19:45.076Z,24.94
2018-08-20T09:22:13.394Z,24.90
2018-08-20T09:24:41.705Z,24.98
2018-08-20T09:27:10.019Z,25.11
2018-08-20T09:29:38.336Z,25.20
2018-08-20T09:32:07.361Z,25.31
2018-08-20T09:34:35.862Z,25.28
2018-08-20T09:37:04.170Z,25.35
2018-08-20T09:39:32.490Z,25.46
2018-08-20T09:42:00.802Z,25.53
2018-08-20T09:44:28.535Z,25.54
2018-08-20T09:46:56.846Z,25.48
2018-08-20T09:49:25.269Z,25.52
2018-08-20T09:51:53.464Z,25.61
2018-08-20T09:54:21.937Z,25.71
2018-08-20T09:56:50.665Z,25.78
2018-08-20T09:59:18.411Z,25.74
2018-08-20T10:01:47.312Z,25.69
2018-08-20T10:04:15.038Z,25.75
2018-08-20T10:06:43.936Z,25.71
2018-08-20T10:09:11.672Z,25.68
2018-08-20T10:11:41.347Z,25.65
2018-08-20T10:14:09.088Z,25.63
2018-08-20T10:16:38.015Z,25.29
2018-08-20T10:19:05.747Z,25.27
2018-08-20T10:21:34.071Z,25.27
2018-08-20T10:24:02.382Z,25.34
2018-08-20T10:26:30.706Z,25.45
2018-08-20T10:28:59.600Z,25.52
2018-08-20T10:31:27.911Z,25.34
2018-08-20T10:33:56.268Z,25.20
2018-08-20T10:36:24.579Z,25.06
2018-08-20T10:38:52.351Z,24.89
2018-08-20T10:41:21.360Z,24.84
2018-08-20T10:43:49.714Z,24.74
2018-08-20T10:46:17.391Z,24.64
2018-08-20T10:48:46.304Z,24.66
2018-08-20T10:51:14.609Z,24.66
2018-08-20T10:53:42.931Z,24.63
2018-08-20T10:56:10.693Z,24.56
2018-08-20T10:58:39.001Z,24.45
2018-08-20T11:01:07.902Z,24.26
2018-08-20T11:03:35.649Z,24.19
2018-08-20T11:06:03.981Z,24.15
2018-08-20T11:08:32.296Z,24.20
2018-08-20T11:11:00.906Z,24.18
2018-08-20T11:13:28.924Z,24.13
2018-08-20T11:15:57.238Z,24.17
2018-08-20T11:18:26.431Z,24.30
2018-08-20T11:20:54.688Z,24.52
2018-08-20T11:23:23.001Z,24.72
2018-08-20T11:25:50.741Z,24.74
2018-08-20T11:28:19.641Z,24.73
2018-08-20T11:30:47.962Z,24.71
2018-08-20T11:33:16.269Z,24.67
2018-08-20T11:35:44.006Z,24.59
2018-08-20T11:38:12.901Z,24.61
2018-08-20T11:40:40.649Z,24.46
2018-08-20T11:43:08.975Z,24.38
2018-08-20T11:45:37.274Z,24.17
2018-08-20T11:48:06.166Z,24.02
2018-08-20T11:50:33.901Z,24.01
2018-08-20T11:53:02.222Z,24.05
2018-08-20T11:55:30.534Z,23.99
2018-08-20T11:57:58.846Z,23.97
2018-08-20T12:00:27.740Z,23.99
2018-08-20T12:02:56.054Z,23.97
2018-08-20T12:05:24.369Z,24.03
2018-08-20T12:07:52.103Z,24.04
2018-08-20T12:10:21.015Z,24.16
2018-08-20T12:12:48.736Z,24.28
2018-08-20T12:15:17.041Z,24.33
2018-08-20T12:17:45.370Z,24.42
2018-08-20T12:20:14.307Z,24.30
2018-08-20T12:22:42.044Z,24.22
2018-08-20T12:25:10.956Z,24.18
2018-08-20T12:27:39.282Z,24.18
2018-08-20T12:30:07.601Z,24.26
2018-08-20T12:32:35.932Z,24.34
2018-08-20T12:35:04.245Z,24.52
2018-08-20T12:37:32.779Z,24.68
2018-08-20T12:40:00.337Z,24.68
2018-08-20T12:42:28.644Z,24.62
2018-08-20T12:44:57.500Z,24.52
2018-08-20T12:47:25.820Z,24.48
2018-08-20T12:49:53.566Z,24.57
2018-08-20T12:52:22.474Z,24.65
2018-08-20T12:54:50.789Z,24.83
2018-08-20T12:57:19.124Z,24.88
2018-08-20T12:59:46.850Z,24.80
2018-08-20T13:02:15.169Z,24.54
2018-08-20T13:04:44.454Z,24.39
2018-08-20T13:07:13.345Z,24.11
2018-08-20T13:09:41.659Z,23.94
2018-08-20T13:12:09.394Z,23.78
2018-08-20T13:14:38.284Z,23.82
2018-08-20T13:17:06.599Z,23.81
2018-08-20T13:19:34.338Z,23.72
2018-08-20T13:22:03.083Z,23.60
2018-08-20T13:24:31.900Z,23.51
2018-08-20T13:26:59.645Z,23.44
2018-08-20T13:29:28.527Z,23.33
2018-08-20T13:31:56.314Z,23.50
2018-08-20T13:34:24.633Z,23.73
2018-08-20T13:36:53.539Z,23.74
2018-08-20T13:39:21.847Z,23.74
2018-08-20T13:41:49.593Z,23.75
2018-08-20T13:44:17.960Z,23.76
2018-08-20T13:46:46.856Z,23.71
2018-08-20T13:49:15.174Z,23.75
2018-08-20T13:51:43.494Z,23.76
2018-08-20T13:54:11.253Z,23.66
2018-08-20T13:56:40.163Z,23.60
2018-08-20T13:59:08.484Z,23.58
2018-08-20T14:01:36.218Z,23.63
2018-08-20T14:04:04.553Z,23.61
2018-08-20T14:06:32.863Z,23.55
2018-08-20T14:09:01.213Z,23.38
2018-08-20T14:11:30.115Z,23.08
2018-08-20T14:13:58.423Z,22.97
2018-08-20T14:16:26.737Z,22.81
2018-08-20T14:18:55.045Z,22.68
2018-08-20T14:21:23.375Z,22.55
2018-08-20T14:23:51.708Z,22.43
2018-08-20T14:26:20.037Z,22.32
2018-08-20T14:28:47.782Z,22.25
2018-08-20T14:31:16.679Z,22.28
2018-08-20T14:33:44.996Z,22.58
2018-08-20T14:36:12.740Z,23.33
2018-08-20T14:38:41.643Z,23.27
2018-08-20T14:41:09.969Z,23.12
2018-08-20T14:43:38.300Z,23.32
2018-08-20T14:46:06.037Z,23.46
2018-08-20T14:48:34.360Z,23.27
2018-08-20T14:51:03.252Z,23.50
2018-08-20T14:53:31.647Z,23.37
2018-08-20T14:55:59.900Z,23.82
2018-08-20T14:58:28.223Z,23.73
2018-08-20T15:00:55.980Z,23.64
2018-08-20T15:03:24.298Z,23.47
2018-08-20T15:05:53.193Z,23.11
2018-08-20T15:08:21.508Z,23.10
2018-08-20T15:10:49.838Z,22.95
2018-08-20T15:13:18.226Z,22.88
2018-08-20T15:15:46.883Z,22.82
2018-08-20T15:18:16.453Z,22.85
2018-08-20T15:20:44.844Z,22.93
2018-08-20T15:23:13.215Z,23.04
2018-08-20T15:25:41.566Z,22.98
2018-08-20T15:28:09.297Z,22.85
2018-08-20T15:30:38.234Z,22.92
2018-08-20T15:33:06.625Z,23.11
2018-08-20T15:35:35.001Z,23.48
2018-08-20T15:38:03.343Z,23.57
2018-08-20T15:40:31.675Z,23.71
2018-08-20T15:43:00.012Z,23.62
2018-08-20T15:45:28.412Z,23.42
2018-08-20T15:47:56.265Z,23.39
2018-08-20T15:50:25.240Z,23.91
2018-08-20T15:52:53.568Z,24.82
2018-08-20T15:55:21.934Z,25.23
2018-08-20T15:57:50.252Z,25.11
2018-08-20T16:00:18.028Z,25.52
2018-08-20T16:02:47.058Z,25.71
2018-08-20T16:05:16.113Z,25.67
2018-08-20T16:07:45.079Z,25.55
2018-08-20T16:10:13.404Z,25.00
2018-08-20T16:12:41.161Z,25.15
2018-08-20T16:15:09.545Z,24.79
2018-08-20T16:17:37.933Z,24.54
2018-08-20T16:20:06.840Z,24.57
2018-08-20T16:22:35.168Z,24.44
2018-08-20T16:25:03.565Z,24.05
2018-08-20T16:27:31.920Z,23.87
2018-08-20T16:30:00.326Z,23.70
2018-08-20T16:32:28.726Z,23.59
2018-08-20T16:34:57.045Z,23.48
2018-08-20T16:37:24.865Z,23.47
2018-08-20T16:39:53.845Z,23.43
2018-08-20T16:42:22.204Z,23.41
2018-08-20T16:44:50.590Z,23.23
2018-08-20T16:47:18.991Z,23.09
2018-08-20T16:49:46.750Z,22.90
2018-08-20T16:52:15.699Z,22.90
2018-08-20T16:54:44.415Z,22.84
2018-08-20T16:57:12.284Z,22.84
2018-08-20T16:59:41.278Z,22.68
2018-08-20T17:02:09.595Z,22.61
2018-08-20T17:04:38.310Z,22.52
2018-08-20T17:07:06.408Z,22.49
2018-08-20T17:09:34.987Z,22.49
2018-08-20T17:12:03.917Z,22.56
2018-08-20T17:14:32.631Z,22.65
2018-08-20T17:17:01.015Z,22.58
2018-08-20T17:19:28.726Z,22.51
2018-08-20T17:21:57.127Z,22.51
2018-08-20T17:24:26.041Z,22.46
2018-08-20T17:26:54.399Z,22.16
2018-08-20T17:29:22.921Z,21.93
2018-08-20T17:31:51.255Z,21.93
2018-08-20T17:34:18.978Z,21.98
2018-08-20T17:36:47.409Z,21.83
2018-08-20T17:39:16.302Z,21.75
2018-08-20T17:41:44.617Z,21.73
2018-08-20T17:44:13.012Z,21.70
2018-08-20T17:46:41.330Z,21.62
2018-08-20T17:49:09.659Z,21.52
2018-08-20T17:51:37.998Z,21.49
2018-08-20T17:54:06.319Z,21.43
2018-08-20T17:56:34.634Z,21.49
2018-08-20T17:59:02.948Z,21.54
2018-08-20T18:01:31.848Z,21.60
2018-08-20T18:03:59.004Z,21.67
2018-08-20T18:06:27.896Z,21.60
2018-08-20T18:08:57.257Z,21.56
2018-08-20T18:11:25.593Z,21.42
2018-08-20T18:13:53.908Z,21.33
2018-08-20T18:16:21.645Z,21.23
2018-08-20T18:18:50.558Z,21.21
2018-08-20T18:21:19.101Z,21.25
2018-08-20T18:23:47.207Z,21.27
2018-08-20T18:26:15.525Z,21.28
2018-08-20T18:28:43.263Z,21.29
2018-08-20T18:31:11.607Z,21.31
2018-08-20T18:33:39.926Z,21.22
2018-08-20T18:36:08.831Z,21.11
2018-08-20T18:38:36.576Z,21.08
2018-08-20T18:41:04.899Z,21.05
2018-08-20T18:43:33.807Z,21.00
2018-08-20T18:46:01.526Z,21.01
2018-08-20T18:48:30.419Z,20.96
2018-08-20T18:50:58.745Z,20.90
2018-08-20T18:53:27.066Z,20.90
2018-08-20T18:55:54.803Z,20.90
2018-08-20T18:58:23.120Z,20.80
2018-08-20T19:00:52.021Z,20.71
2018-08-20T19:03:20.347Z,20.70
2018-08-20T19:05:48.611Z,20.62
2018-08-20T19:08:16.984Z,20.61
2018-08-20T19:10:45.378Z,20.53
2018-08-20T19:13:13.795Z,20.42
2018-08-20T19:15:42.360Z,20.40
2018-08-20T19:18:09.876Z,20.36
2018-08-20T19:20:38.789Z,20.32
2018-08-20T19:23:07.144Z,20.34
2018-08-20T19:25:35.489Z,20.31
2018-08-20T19:28:03.816Z,20.30
2018-08-20T19:30:32.127Z,20.26
2018-08-20T19:33:00.527Z,20.23
2018-08-20T19:35:28.910Z,20.21
2018-08-20T19:37:59.570Z,20.22
2018-08-20T19:40:25.879Z,20.20
2018-08-20T19:42:56.180Z,20.20
2018-08-20T19:45:27.968Z,20.20
2018-08-20T19:47:56.367Z,20.15
2018-08-20T19:50:24.991Z,20.17
2018-08-20T19:52:52.729Z,20.06
2018-08-20T19:55:21.225Z,19.99
2018-08-20T19:57:50.435Z,19.97
2018-08-20T20:00:18.496Z,19.96
2018-08-20T20:02:46.244Z,19.96
2018-08-20T20:05:15.237Z,19.97
2018-08-20T20:07:43.578Z,19.96
2018-08-20T20:10:13.331Z,19.90
2018-08-20T20:12:40.395Z,19.86
2018-08-20T20:15:08.821Z,19.82
2018-08-20T20:17:37.195Z,19.89
2018-08-20T20:20:05.533Z,19.91
2018-08-20T20:22:33.329Z,19.88
2018-08-20T20:25:02.304Z,19.84
2018-08-20T20:27:30.784Z,19.84
2018-08-20T20:29:58.880Z,19.87
2018-08-20T20:32:27.239Z,19.84
2018-08-20T20:34:55.220Z,19.82
2018-08-20T20:37:24.054Z,19.87
2018-08-20T20:39:51.858Z,19.93
2018-08-20T20:42:20.818Z,19.88
2018-08-20T20:44:48.589Z,19.81
2018-08-20T20:47:17.599Z,19.81
2018-08-20T20:49:45.930Z,19.84
2018-08-20T20:52:14.251Z,19.78
2018-08-20T20:54:43.378Z,19.66
2018-08-20T20:57:11.713Z,19.67
2018-08-20T20:59:39.466Z,19.66
2018-08-20T21:02:07.785Z,19.60
2018-08-20T21:04:36.687Z,19.56
2018-08-20T21:07:04.998Z,19.57
2018-08-20T21:09:33.319Z,19.56
2018-08-20T21:12:01.069Z,19.55
2018-08-20T21:14:29.394Z,19.47
2018-08-20T21:16:57.721Z,19.43
2018-08-20T21:19:26.043Z,19.37
2018-08-20T21:21:54.370Z,19.40
2018-08-20T21:24:23.315Z,19.34
2018-08-20T21:26:51.019Z,19.33
2018-08-20T21:29:19.950Z,19.26
2018-08-20T21:31:48.274Z,19.25
2018-08-20T21:34:16.657Z,19.23
2018-08-20T21:36:45.004Z,19.23
2018-08-20T21:39:13.398Z,19.20
2018-08-20T21:41:41.716Z,19.20
2018-08-20T21:44:10.026Z,19.16
2018-08-20T21:46:38.343Z,19.15
2018-08-20T21:49:06.075Z,19.16
2018-08-20T21:51:34.390Z,19.15
2018-08-20T21:54:02.707Z,19.12
2018-08-20T21:56:31.024Z,19.12
2018-08-20T21:58:59.933Z,19.14
2018-08-20T22:01:27.666Z,19.16
2018-08-20T22:03:56.561Z,19.22
2018-08-20T22:06:24.869Z,19.21
2018-08-20T22:08:53.192Z,19.16
2018-08-20T22:11:20.935Z,19.11
2018-08-20T22:13:49.268Z,19.08
2018-08-20T22:16:18.173Z,19.09
2018-08-20T22:18:46.494Z,19.06
2018-08-20T22:21:14.813Z,19.00
2018-08-20T22:23:42.546Z,19.03
2018-08-20T22:26:10.877Z,19.10
2018-08-20T22:28:39.821Z,19.14
2018-08-20T22:31:13.520Z,19.17
2018-08-20T22:33:47.235Z,19.19
2018-08-20T22:36:20.966Z,19.19
2018-08-20T22:38:54.703Z,19.21
2018-08-20T22:41:23.097Z,19.25
2018-08-20T22:43:50.826Z,19.25
2018-08-20T22:46:19.744Z,19.20
2018-08-20T22:48:47.470Z,19.05
2018-08-20T22:51:16.359Z,18.99
2018-08-20T22:53:44.677Z,18.97
2018-08-20T22:56:12.996Z,18.88
2018-08-20T22:58:40.734Z,18.76
2018-08-20T23:01:09.622Z,18.65
2018-08-20T23:03:37.361Z,18.60
2018-08-20T23:06:06.265Z,18.57
2018-08-20T23:08:33.994Z,18.62
2018-08-20T23:11:02.931Z,18.63
2018-08-20T23:13:36.644Z,18.68
2018-08-20T23:16:10.374Z,18.64
2018-08-20T23:18:44.162Z,18.50
2018-08-20T23:21:17.935Z,18.41
2018-08-20T23:23:51.628Z,18.38
2018-08-20T23:26:19.394Z,18.37
2018-08-20T23:28:47.712Z,18.35
2018-08-20T23:31:16.029Z,18.32
2018-08-20T23:33:44.925Z,18.34
2018-08-20T23:36:12.653Z,18.42
2018-08-20T23:38:41.545Z,18.53
2018-08-20T23:41:09.293Z,18.60
2018-08-20T23:43:38.201Z,18.61
2018-08-20T23:46:06.516Z,18.56
2018-08-20T23:48:34.722Z,18.55
2018-08-20T23:51:03.153Z,18.57
2018-08-20T23:53:30.877Z,18.61
2018-08-20T23:55:59.791Z,18.70
2018-08-20T23:58:28.131Z,18.67
